Time;durP1;ratioP1;P1;durP2;ratioP2;P2;SDS_P1;SDS_P2;PMS_P1;PMS_P2;Temp;Humidity;BMP_temperature;BMP_pressure;BME280_temperature;BME280_humidity;BME280_pressure;Samples;Min_cycle;Max_cycle;Signal;HPM_P1;HPM_P2
2024/01/14 00:00:09;;;;;;;48.55;24.33;;;;;;;;;;5066761;28;20047;-65
2024/01/14 00:02:35;;;;;;;58.55;25.02;;;;;;;;;;5058299;28;20786;-65
2024/01/14 00:05:00;;;;;;;54.00;25.38;;;;;;;;;;5065547;28;20062;-66
2024/01/14 00:07:25;;;;;;;49.95;24.48;;;;;;;;;;5070429;28;20093;-65
2024/01/14 00:09:51;;;;;;;52.63;23.10;;;;;;;;;;5068831;28;20211;-66
2024/01/14 00:12:16;;;;;;;53.38;26.08;;;;;;;;;;5071118;28;20139;-65
2024/01/14 00:14:41;;;;;;;60.25;25.45;;;;;;;;;;5063403;28;20027;-65
2024/01/14 00:17:07;;;;;;;51.92;25.75;;;;;;;;;;5048392;28;20040;-65
2024/01/14 00:19:32;;;;;;;54.10;25.15;;;;;;;;;;5057290;28;20131;-65
2024/01/14 00:21:57;;;;;;;44.70;24.20;;;;;;;;;;5059882;28;20151;-65
2024/01/14 00:24:22;;;;;;;53.67;24.75;;;;;;;;;;5068096;28;20936;-65
2024/01/14 00:26:47;;;;;;;62.35;25.33;;;;;;;;;;5066864;28;20923;-65
2024/01/14 00:29:13;;;;;;;54.45;26.20;;;;;;;;;;5071430;28;20113;-65
2024/01/14 00:31:38;;;;;;;52.30;25.08;;;;;;;;;;5071302;28;20024;-65
2024/01/14 00:34:04;;;;;;;49.38;24.20;;;;;;;;;;5063292;28;20039;-65
2024/01/14 00:36:29;;;;;;;52.78;24.20;;;;;;;;;;5063616;28;20757;-65
2024/01/14 00:38:54;;;;;;;48.75;24.67;;;;;;;;;;5057239;28;20028;-65
2024/01/14 00:41:20;;;;;;;49.88;23.83;;;;;;;;;;5066915;28;20036;-65
2024/01/14 00:43:45;;;;;;;52.45;24.85;;;;;;;;;;5059186;28;20084;-65
2024/01/14 00:46:11;;;;;;;61.05;25.58;;;;;;;;;;5056045;28;20020;-65
2024/01/14 00:48:36;;;;;;;62.28;25.60;;;;;;;;;;5044739;28;20085;-65
2024/01/14 00:51:02;;;;;;;57.13;24.92;;;;;;;;;;5067831;28;20474;-65
2024/01/14 00:53:27;;;;;;;54.63;24.80;;;;;;;;;;5063869;28;20139;-65
2024/01/14 00:55:52;;;;;;;59.22;24.45;;;;;;;;;;5068644;28;20031;-65
2024/01/14 00:58:17;;;;;;;56.80;25.73;;;;;;;;;;5074600;28;20036;-65
2024/01/14 01:00:43;;;;;;;52.65;22.67;;;;;;;;;;5066762;28;20034;-65
2024/01/14 01:03:08;;;;;;;51.38;23.58;;;;;;;;;;5068135;28;20028;-65
2024/01/14 01:05:33;;;;;;;59.47;25.33;;;;;;;;;;5065317;28;20102;-65
2024/01/14 01:07:58;;;;;;;50.97;23.70;;;;;;;;;;5050161;28;20039;-65
2024/01/14 01:10:23;;;;;;;52.50;24.48;;;;;;;;;;5062291;28;20031;-64
2024/01/14 01:12:49;;;;;;;53.45;23.67;;;;;;;;;;5068023;28;20020;-64
2024/01/14 01:15:14;;;;;;;56.67;26.23;;;;;;;;;;5051702;28;20032;-64
2024/01/14 01:17:39;;;;;;;48.80;23.00;;;;;;;;;;5066164;28;20132;-64
2024/01/14 01:20:07;;;;;;;55.95;23.23;;;;;;;;;;5067286;28;20119;-64
2024/01/14 01:22:32;;;;;;;50.45;23.58;;;;;;;;;;5052498;28;20793;-64
2024/01/14 01:24:58;;;;;;;52.53;24.63;;;;;;;;;;5068713;28;20038;-64
2024/01/14 01:27:23;;;;;;;57.50;24.67;;;;;;;;;;5066293;28;20028;-65
2024/01/14 01:29:49;;;;;;;55.30;25.63;;;;;;;;;;5066206;28;20052;-64
2024/01/14 01:32:14;;;;;;;49.00;24.08;;;;;;;;;;5053985;28;20194;-65
2024/01/14 01:34:40;;;;;;;57.72;25.73;;;;;;;;;;5072304;28;20454;-64
2024/01/14 01:37:05;;;;;;;60.47;24.63;;;;;;;;;;5063784;28;20178;-65
2024/01/14 01:39:31;;;;;;;63.42;27.60;;;;;;;;;;5068086;28;20052;-65
2024/01/14 01:41:56;;;;;;;56.00;23.23;;;;;;;;;;5074040;28;20032;-64
2024/01/14 01:44:21;;;;;;;54.72;25.00;;;;;;;;;;5070537;28;20036;-65
2024/01/14 01:46:47;;;;;;;51.25;24.88;;;;;;;;;;5070496;28;20063;-64
2024/01/14 01:49:12;;;;;;;59.40;26.13;;;;;;;;;;5071956;28;20035;-65
2024/01/14 01:51:39;;;;;;;49.58;24.80;;;;;;;;;;5070797;28;20572;-64
2024/01/14 01:54:04;;;;;;;61.55;25.75;;;;;;;;;;5071591;28;20028;-64
2024/01/14 01:56:31;;;;;;;53.13;24.17;;;;;;;;;;5073253;28;20085;-65
2024/01/14 01:58:57;;;;;;;53.67;25.08;;;;;;;;;;5074324;28;20089;-64
2024/01/14 02:01:22;;;;;;;49.78;24.67;;;;;;;;;;5071016;28;20486;-65
2024/01/14 02:03:49;;;;;;;55.58;26.63;;;;;;;;;;5069351;28;21097;-65
2024/01/14 02:06:15;;;;;;;59.40;26.35;;;;;;;;;;5069125;28;20533;-64
2024/01/14 02:08:40;;;;;;;52.60;24.83;;;;;;;;;;5073838;28;20039;-65
2024/01/14 02:11:05;;;;;;;49.42;24.48;;;;;;;;;;5069612;28;20781;-64
2024/01/14 02:13:31;;;;;;;47.70;23.35;;;;;;;;;;5072457;28;20028;-64
2024/01/14 02:15:56;;;;;;;44.38;24.00;;;;;;;;;;5070475;28;20020;-64
2024/01/14 02:18:21;;;;;;;48.03;24.17;;;;;;;;;;5066411;28;20486;-64
2024/01/14 02:20:47;;;;;;;51.58;23.50;;;;;;;;;;5066542;28;20093;-64
2024/01/14 02:23:13;;;;;;;54.22;25.55;;;;;;;;;;5070656;28;20024;-64
2024/01/14 02:25:38;;;;;;;53.35;23.52;;;;;;;;;;5069160;28;20032;-64
2024/01/14 02:28:04;;;;;;;49.83;22.83;;;;;;;;;;5067944;28;20667;-65
2024/01/14 02:30:29;;;;;;;52.78;24.08;;;;;;;;;;5079629;28;20032;-65
2024/01/14 02:32:55;;;;;;;48.03;23.80;;;;;;;;;;5074737;28;20027;-65
2024/01/14 02:35:20;;;;;;;53.95;23.77;;;;;;;;;;5070005;28;20144;-64
2024/01/14 02:37:47;;;;;;;56.45;24.27;;;;;;;;;;5065550;28;20031;-65
2024/01/14 02:40:12;;;;;;;45.60;22.58;;;;;;;;;;5068513;28;20165;-65
2024/01/14 02:42:40;;;;;;;55.15;23.48;;;;;;;;;;5065585;28;20050;-65
2024/01/14 02:45:07;;;;;;;45.33;22.08;;;;;;;;;;5066947;28;20050;-65
2024/01/14 02:47:32;;;;;;;43.47;20.52;;;;;;;;;;5069212;28;20082;-65
2024/01/14 02:49:57;;;;;;;48.65;22.38;;;;;;;;;;5073548;28;20854;-65
2024/01/14 02:52:22;;;;;;;48.00;21.90;;;;;;;;;;5067043;28;20150;-65
2024/01/14 02:54:48;;;;;;;47.80;22.03;;;;;;;;;;5073997;28;20318;-65
2024/01/14 02:57:13;;;;;;;46.67;22.95;;;;;;;;;;5072764;28;20266;-65
2024/01/14 02:59:38;;;;;;;46.55;23.23;;;;;;;;;;5067347;28;20920;-65
2024/01/14 03:02:04;;;;;;;55.20;23.50;;;;;;;;;;5069821;28;20040;-65
2024/01/14 03:04:29;;;;;;;47.13;22.52;;;;;;;;;;5059676;28;20031;-65
2024/01/14 03:06:54;;;;;;;47.15;21.70;;;;;;;;;;5066490;28;20034;-65
2024/01/14 03:09:19;;;;;;;46.70;22.38;;;;;;;;;;5068727;28;20034;-65
2024/01/14 03:11:45;;;;;;;52.92;23.27;;;;;;;;;;5064762;28;20494;-65
2024/01/14 03:14:10;;;;;;;51.33;22.92;;;;;;;;;;5066081;28;20020;-65
2024/01/14 03:16:35;;;;;;;40.75;19.58;;;;;;;;;;5069011;28;20020;-65
2024/01/14 03:19:00;;;;;;;44.53;20.67;;;;;;;;;;5066364;28;20865;-65
2024/01/14 03:21:25;;;;;;;54.03;23.67;;;;;;;;;;5069701;28;20936;-65
2024/01/14 03:23:51;;;;;;;43.75;21.73;;;;;;;;;;5058269;28;20127;-65
2024/01/14 03:26:16;;;;;;;45.30;20.52;;;;;;;;;;5071012;28;20130;-65
2024/01/14 03:28:41;;;;;;;45.88;21.10;;;;;;;;;;5075232;28;20077;-65
2024/01/14 03:31:09;;;;;;;47.75;21.35;;;;;;;;;;5057514;28;20398;-65
2024/01/14 03:33:35;;;;;;;44.08;21.30;;;;;;;;;;5067191;28;20034;-65
2024/01/14 03:36:00;;;;;;;42.97;21.58;;;;;;;;;;5065734;28;20020;-64
2024/01/14 03:38:25;;;;;;;44.30;20.52;;;;;;;;;;5068131;28;20142;-65
2024/01/14 03:40:51;;;;;;;42.65;19.73;;;;;;;;;;5064769;28;20089;-64
2024/01/14 03:43:16;;;;;;;41.70;19.30;;;;;;;;;;5069051;28;20024;-64
2024/01/14 03:45:41;;;;;;;42.65;19.83;;;;;;;;;;5071730;28;20020;-65
2024/01/14 03:48:06;;;;;;;40.67;20.20;;;;;;;;;;5058274;28;20024;-64
2024/01/14 03:50:32;;;;;;;43.85;19.77;;;;;;;;;;5055650;28;20050;-64
2024/01/14 03:52:57;;;;;;;42.33;20.08;;;;;;;;;;5066746;28;20889;-64
2024/01/14 03:55:22;;;;;;;49.33;20.35;;;;;;;;;;5071607;28;20781;-65
2024/01/14 03:57:48;;;;;;;49.15;20.42;;;;;;;;;;5071781;28;20039;-64
2024/01/14 04:00:13;;;;;;;42.33;19.15;;;;;;;;;;5069771;28;20024;-64
2024/01/14 04:02:38;;;;;;;44.40;18.33;;;;;;;;;;5074418;28;20507;-64
2024/01/14 04:05:04;;;;;;;44.45;18.27;;;;;;;;;;5067679;28;20036;-65
2024/01/14 04:07:29;;;;;;;47.80;19.73;;;;;;;;;;5072760;28;20078;-65
2024/01/14 04:09:55;;;;;;;45.40;20.52;;;;;;;;;;5059841;28;20071;-65
2024/01/14 04:12:20;;;;;;;41.88;19.52;;;;;;;;;;5066901;28;20020;-65
2024/01/14 04:14:45;;;;;;;40.42;18.90;;;;;;;;;;5061867;28;20028;-65
2024/01/14 04:17:11;;;;;;;44.17;20.88;;;;;;;;;;5063228;28;20024;-65
2024/01/14 04:19:37;;;;;;;46.63;19.05;;;;;;;;;;5062468;28;20085;-65
2024/01/14 04:22:03;;;;;;;37.90;17.45;;;;;;;;;;5062760;28;20020;-65
2024/01/14 04:24:28;;;;;;;44.55;18.92;;;;;;;;;;5071599;28;20549;-64
2024/01/14 04:26:53;;;;;;;39.97;18.55;;;;;;;;;;5061777;28;20450;-64
2024/01/14 04:29:18;;;;;;;42.33;18.67;;;;;;;;;;5067431;28;20032;-64
2024/01/14 04:31:44;;;;;;;39.63;17.80;;;;;;;;;;5065812;28;20028;-64
2024/01/14 04:34:09;;;;;;;35.05;18.42;;;;;;;;;;5044687;28;20294;-64
2024/01/14 04:36:34;;;;;;;40.42;20.17;;;;;;;;;;5070718;28;20024;-64
2024/01/14 04:38:59;;;;;;;43.10;18.00;;;;;;;;;;5067037;28;20047;-64
2024/01/14 04:41:25;;;;;;;39.97;18.77;;;;;;;;;;5070095;28;20181;-65
2024/01/14 04:43:50;;;;;;;47.20;17.20;;;;;;;;;;5066561;28;20024;-65
2024/01/14 04:46:15;;;;;;;34.00;17.00;;;;;;;;;;5054806;28;20749;-65
2024/01/14 04:48:41;;;;;;;40.47;17.77;;;;;;;;;;5066886;28;20824;-66
2024/01/14 04:51:06;;;;;;;37.83;16.75;;;;;;;;;;5067124;28;20059;-66
2024/01/14 04:53:31;;;;;;;36.00;17.00;;;;;;;;;;5063838;28;20036;-66
2024/01/14 04:55:57;;;;;;;41.25;19.20;;;;;;;;;;5054829;28;20033;-66
2024/01/14 04:58:22;;;;;;;43.47;18.17;;;;;;;;;;5068259;28;20056;-66
2024/01/14 05:00:47;;;;;;;39.65;17.73;;;;;;;;;;5070004;28;20134;-66
2024/01/14 05:03:13;;;;;;;39.17;16.98;;;;;;;;;;5077907;28;20064;-66
2024/01/14 05:05:39;;;;;;;33.33;17.58;;;;;;;;;;5065579;28;20042;-66
2024/01/14 05:08:04;;;;;;;39.38;17.98;;;;;;;;;;5066160;28;20036;-66
2024/01/14 05:10:29;;;;;;;32.72;16.42;;;;;;;;;;5071358;28;20078;-66
2024/01/14 05:12:54;;;;;;;47.53;18.10;;;;;;;;;;5072889;28;20056;-66
2024/01/14 05:15:20;;;;;;;36.03;17.60;;;;;;;;;;5069640;28;20154;-66
2024/01/14 05:17:45;;;;;;;41.35;17.85;;;;;;;;;;5071885;28;20106;-66
2024/01/14 05:20:10;;;;;;;39.95;19.13;;;;;;;;;;5068645;28;20836;-65
2024/01/14 05:22:35;;;;;;;45.90;20.80;;;;;;;;;;5064801;28;20509;-65
2024/01/14 05:25:01;;;;;;;37.95;19.90;;;;;;;;;;5067453;28;20900;-65
2024/01/14 05:27:26;;;;;;;45.45;19.17;;;;;;;;;;5069551;28;21004;-66
2024/01/14 05:29:51;;;;;;;42.90;18.88;;;;;;;;;;5066705;28;20056;-65
2024/01/14 05:32:17;;;;;;;37.00;18.85;;;;;;;;;;5069162;28;20836;-65
2024/01/14 05:34:43;;;;;;;46.85;18.85;;;;;;;;;;5069705;28;20024;-66
2024/01/14 05:37:08;;;;;;;46.92;19.73;;;;;;;;;;5069800;28;20872;-65
2024/01/14 05:39:34;;;;;;;53.83;22.77;;;;;;;;;;5071822;28;20036;-66
2024/01/14 05:41:59;;;;;;;47.50;22.70;;;;;;;;;;5068061;28;20036;-65
2024/01/14 05:44:24;;;;;;;39.95;22.40;;;;;;;;;;5071002;28;20036;-65
2024/01/14 05:46:50;;;;;;;45.30;19.40;;;;;;;;;;5068551;28;20762;-66
2024/01/14 05:49:16;;;;;;;43.50;19.38;;;;;;;;;;5070507;28;20123;-65
2024/01/14 05:51:41;;;;;;;35.15;17.23;;;;;;;;;;5067420;28;20072;-65
2024/01/14 05:54:06;;;;;;;37.70;18.27;;;;;;;;;;5071025;28;21055;-65
2024/01/14 05:56:32;;;;;;;46.15;19.65;;;;;;;;;;5068971;28;20035;-65
2024/01/14 05:58:57;;;;;;;34.80;16.63;;;;;;;;;;5078822;28;20021;-65
2024/01/14 06:01:22;;;;;;;44.40;18.63;;;;;;;;;;5068086;28;20046;-65
2024/01/14 06:03:47;;;;;;;45.50;18.23;;;;;;;;;;5067311;28;20036;-65
2024/01/14 06:06:13;;;;;;;38.65;16.80;;;;;;;;;;5069559;28;20032;-66
2024/01/14 06:08:40;;;;;;;42.53;17.90;;;;;;;;;;5059098;28;20031;-65
2024/01/14 06:11:05;;;;;;;43.40;18.42;;;;;;;;;;5067007;28;20514;-65
2024/01/14 06:13:30;;;;;;;45.42;18.15;;;;;;;;;;5069029;28;20031;-66
2024/01/14 06:15:56;;;;;;;35.97;16.37;;;;;;;;;;5068627;28;20107;-65
2024/01/14 06:18:21;;;;;;;42.03;17.95;;;;;;;;;;5062325;28;21180;-65
2024/01/14 06:20:46;;;;;;;37.97;15.90;;;;;;;;;;5064656;28;20036;-65
2024/01/14 06:23:12;;;;;;;37.00;15.32;;;;;;;;;;5064279;28;20048;-67
2024/01/14 06:25:37;;;;;;;36.83;16.40;;;;;;;;;;5060583;28;20028;-65
2024/01/14 06:28:02;;;;;;;37.30;17.42;;;;;;;;;;5069057;28;20026;-65
2024/01/14 06:30:28;;;;;;;39.97;17.23;;;;;;;;;;5069537;28;20051;-66
2024/01/14 06:32:56;;;;;;;42.13;19.27;;;;;;;;;;5070359;28;20034;-66
2024/01/14 06:35:21;;;;;;;36.88;17.73;;;;;;;;;;5072558;28;20027;-65
2024/01/14 06:37:47;;;;;;;35.55;15.57;;;;;;;;;;5063784;28;20036;-65
2024/01/14 06:40:12;;;;;;;38.08;15.68;;;;;;;;;;5068421;28;20027;-66
2024/01/14 06:42:37;;;;;;;31.10;16.90;;;;;;;;;;5067359;28;20547;-65
2024/01/14 06:45:03;;;;;;;37.47;15.88;;;;;;;;;;5069894;28;20032;-66
2024/01/14 06:47:28;;;;;;;34.30;16.02;;;;;;;;;;5066350;28;20035;-66
2024/01/14 06:49:54;;;;;;;30.67;15.07;;;;;;;;;;5069677;28;20599;-66
2024/01/14 06:52:22;;;;;;;37.15;14.93;;;;;;;;;;5077435;28;20036;-66
2024/01/14 06:54:47;;;;;;;35.92;15.82;;;;;;;;;;5075717;28;20024;-65
2024/01/14 06:57:12;;;;;;;34.72;15.65;;;;;;;;;;5081565;28;20028;-65
2024/01/14 06:59:42;;;;;;;31.98;15.68;;;;;;;;;;5079191;28;20196;-65
2024/01/14 07:02:07;;;;;;;31.67;14.95;;;;;;;;;;5068453;28;20036;-66
2024/01/14 07:04:32;;;;;;;41.40;17.52;;;;;;;;;;5069472;28;20019;-65
2024/01/14 07:06:57;;;;;;;38.40;16.38;;;;;;;;;;5063426;28;20453;-66
2024/01/14 07:09:23;;;;;;;39.85;17.80;;;;;;;;;;5072106;28;20016;-66
2024/01/14 07:11:48;;;;;;;30.75;15.77;;;;;;;;;;5070657;28;20047;-66
2024/01/14 07:14:13;;;;;;;45.15;16.85;;;;;;;;;;5066565;28;20020;-65
2024/01/14 07:16:38;;;;;;;43.78;18.25;;;;;;;;;;5066946;28;20036;-66
2024/01/14 07:19:04;;;;;;;38.00;15.00;;;;;;;;;;5079993;28;20483;-67
2024/01/14 07:21:30;;;;;;;31.90;15.38;;;;;;;;;;5093155;28;20016;-66
2024/01/14 07:23:56;;;;;;;41.50;17.90;;;;;;;;;;5093312;28;20085;-66
2024/01/14 07:26:21;;;;;;;39.50;15.30;;;;;;;;;;5092123;28;20023;-66
2024/01/14 07:28:46;;;;;;;40.85;17.58;;;;;;;;;;5093433;28;20020;-66
2024/01/14 07:31:14;;;;;;;39.38;16.33;;;;;;;;;;5092135;28;20496;-66
2024/01/14 07:33:39;;;;;;;34.53;17.17;;;;;;;;;;5093196;28;20035;-66
2024/01/14 07:36:04;;;;;;;36.40;16.95;;;;;;;;;;5092327;28;20020;-66
2024/01/14 07:38:30;;;;;;;47.33;17.00;;;;;;;;;;5092460;28;20028;-66
2024/01/14 07:40:55;;;;;;;46.28;15.88;;;;;;;;;;5092483;28;20492;-66
2024/01/14 07:43:21;;;;;;;40.97;17.27;;;;;;;;;;5092327;28;20736;-66
2024/01/14 07:45:47;;;;;;;39.35;17.13;;;;;;;;;;5092703;28;20060;-66
2024/01/14 07:48:13;;;;;;;35.78;15.82;;;;;;;;;;5092170;28;20027;-66
2024/01/14 07:50:38;;;;;;;35.70;15.85;;;;;;;;;;5092472;28;20024;-65
2024/01/14 07:53:03;;;;;;;40.55;14.75;;;;;;;;;;5092731;28;20024;-66
2024/01/14 07:55:28;;;;;;;39.92;16.92;;;;;;;;;;5087810;28;20029;-66
2024/01/14 07:57:55;;;;;;;37.47;17.70;;;;;;;;;;5089172;28;20020;-66
2024/01/14 08:00:20;;;;;;;39.28;17.35;;;;;;;;;;5092789;28;20319;-66
2024/01/14 08:02:45;;;;;;;35.22;16.05;;;;;;;;;;5090375;28;20024;-66
2024/01/14 08:05:11;;;;;;;43.20;16.83;;;;;;;;;;5092483;28;20016;-66
2024/01/14 08:07:36;;;;;;;37.97;15.20;;;;;;;;;;5092203;28;20043;-66
2024/01/14 08:10:01;;;;;;;28.55;15.80;;;;;;;;;;5092277;28;20061;-66
2024/01/14 08:12:27;;;;;;;39.60;17.45;;;;;;;;;;5092506;28;20038;-66
2024/01/14 08:14:52;;;;;;;44.42;16.58;;;;;;;;;;5091218;28;20420;-64
2024/01/14 08:17:17;;;;;;;38.70;17.98;;;;;;;;;;5091881;28;20024;-64
2024/01/14 08:19:42;;;;;;;37.25;16.98;;;;;;;;;;5088287;28;20020;-66
2024/01/14 08:22:08;;;;;;;40.03;15.93;;;;;;;;;;5091735;28;20440;-64
2024/01/14 08:24:33;;;;;;;34.47;16.80;;;;;;;;;;5092103;28;20123;-63
2024/01/14 08:26:59;;;;;;;32.28;16.13;;;;;;;;;;5091276;28;20374;-65
2024/01/14 08:29:24;;;;;;;35.05;15.93;;;;;;;;;;5089792;28;20028;-66
2024/01/14 08:31:49;;;;;;;36.00;15.30;;;;;;;;;;5071578;28;20024;-64
2024/01/14 08:34:14;;;;;;;40.70;16.30;;;;;;;;;;5091543;28;20481;-64
2024/01/14 08:36:39;;;;;;;34.70;16.45;;;;;;;;;;5091871;28;20031;-64
2024/01/14 08:39:05;;;;;;;35.35;15.27;;;;;;;;;;5089723;28;20030;-64
2024/01/14 08:41:30;;;;;;;44.90;17.30;;;;;;;;;;5091056;28;20112;-64
2024/01/14 08:43:56;;;;;;;43.53;17.90;;;;;;;;;;5090539;28;20032;-67
2024/01/14 08:46:22;;;;;;;31.70;16.23;;;;;;;;;;5090463;28;20492;-66
2024/01/14 08:48:47;;;;;;;40.40;16.77;;;;;;;;;;5089960;28;20031;-65
2024/01/14 08:51:13;;;;;;;37.22;16.10;;;;;;;;;;5090606;28;20051;-65
2024/01/14 08:53:39;;;;;;;35.42;16.60;;;;;;;;;;5070494;28;20035;-65
2024/01/14 08:56:05;;;;;;;41.22;16.65;;;;;;;;;;5089960;28;20040;-65
2024/01/14 08:58:30;;;;;;;31.65;14.63;;;;;;;;;;5090824;28;20363;-65
2024/01/14 09:00:55;;;;;;;34.92;14.55;;;;;;;;;;5090576;28;20065;-65
2024/01/14 09:03:21;;;;;;;35.95;14.85;;;;;;;;;;5091236;28;20028;-64
2024/01/14 09:05:46;;;;;;;38.08;15.60;;;;;;;;;;5080598;28;20032;-64
2024/01/14 09:08:12;;;;;;;37.42;15.05;;;;;;;;;;5083439;28;20016;-64
2024/01/14 09:10:37;;;;;;;37.70;15.23;;;;;;;;;;5075720;28;20028;-65
2024/01/14 09:13:02;;;;;;;38.47;13.80;;;;;;;;;;5082435;28;20016;-64
2024/01/14 09:15:28;;;;;;;30.23;15.18;;;;;;;;;;5090221;28;20027;-66
2024/01/14 09:17:53;;;;;;;32.17;15.13;;;;;;;;;;5080696;28;20083;-64
2024/01/14 09:20:19;;;;;;;30.90;14.38;;;;;;;;;;5075890;28;20112;-64
2024/01/14 09:22:44;;;;;;;31.65;14.35;;;;;;;;;;5089306;28;20024;-64
2024/01/14 09:25:10;;;;;;;36.63;13.00;;;;;;;;;;5087764;28;20021;-64
2024/01/14 09:27:36;;;;;;;29.58;15.55;;;;;;;;;;5089621;28;20024;-64
2024/01/14 09:30:01;;;;;;;32.75;13.82;;;;;;;;;;5087993;28;20028;-65
2024/01/14 09:32:26;;;;;;;25.70;13.15;;;;;;;;;;5090328;28;20026;-64
2024/01/14 09:34:52;;;;;;;25.08;12.73;;;;;;;;;;5091022;28;20051;-64
2024/01/14 09:37:17;;;;;;;31.20;13.60;;;;;;;;;;5091138;28;20028;-65
2024/01/14 09:39:42;;;;;;;27.20;14.45;;;;;;;;;;5091387;28;20103;-64
2024/01/14 09:42:10;;;;;;;28.05;14.55;;;;;;;;;;5090329;28;20474;-65
2024/01/14 09:44:35;;;;;;;25.10;12.38;;;;;;;;;;5090331;28;20119;-65
2024/01/14 09:47:01;;;;;;;28.95;13.82;;;;;;;;;;5084440;28;20143;-64
2024/01/14 09:49:26;;;;;;;28.48;14.00;;;;;;;;;;5090310;28;20024;-64
2024/01/14 09:51:52;;;;;;;29.30;13.10;;;;;;;;;;5088989;28;20069;-64
2024/01/14 09:54:17;;;;;;;28.73;13.52;;;;;;;;;;5085951;28;20028;-64
2024/01/14 09:56:44;;;;;;;31.67;11.88;;;;;;;;;;5093339;28;20050;-65
2024/01/14 09:59:09;;;;;;;28.38;12.27;;;;;;;;;;5090279;28;20032;-64
2024/01/14 10:01:35;;;;;;;34.95;13.45;;;;;;;;;;5091038;28;20122;-64
2024/01/14 10:04:01;;;;;;;25.63;13.93;;;;;;;;;;5080232;28;20024;-64
2024/01/14 10:06:27;;;;;;;31.55;14.00;;;;;;;;;;5093979;28;20103;-64
2024/01/14 10:08:52;;;;;;;29.23;13.80;;;;;;;;;;5093294;28;20023;-64
2024/01/14 10:11:17;;;;;;;23.90;13.48;;;;;;;;;;5094049;28;20028;-65
2024/01/14 10:13:42;;;;;;;34.10;13.88;;;;;;;;;;5084932;28;20139;-64
2024/01/14 10:16:10;;;;;;;27.85;13.48;;;;;;;;;;5092530;28;20023;-65
2024/01/14 10:18:36;;;;;;;30.73;13.90;;;;;;;;;;5073897;28;20024;-64
2024/01/14 10:21:01;;;;;;;25.95;13.75;;;;;;;;;;5093250;28;20024;-64
2024/01/14 10:23:27;;;;;;;31.75;13.73;;;;;;;;;;5093368;28;20076;-65
2024/01/14 10:25:54;;;;;;;27.58;12.52;;;;;;;;;;5091526;28;20047;-65
2024/01/14 10:28:19;;;;;;;29.38;12.98;;;;;;;;;;5093682;28;20043;-65
2024/01/14 10:30:44;;;;;;;20.75;11.35;;;;;;;;;;5092545;28;20020;-65
2024/01/14 10:33:10;;;;;;;24.10;11.40;;;;;;;;;;5093570;28;20015;-65
2024/01/14 10:35:37;;;;;;;20.38;11.90;;;;;;;;;;5088314;28;20012;-65
2024/01/14 10:38:02;;;;;;;29.73;13.27;;;;;;;;;;5089287;28;20016;-65
2024/01/14 10:40:27;;;;;;;27.25;12.35;;;;;;;;;;5090340;28;20016;-65
2024/01/14 10:42:53;;;;;;;25.33;11.90;;;;;;;;;;5082642;28;20527;-65
2024/01/14 10:45:18;;;;;;;22.73;11.18;;;;;;;;;;5080654;28;20035;-65
2024/01/14 10:47:46;;;;;;;26.83;11.40;;;;;;;;;;5087653;28;20032;-65
2024/01/14 10:50:12;;;;;;;26.52;11.70;;;;;;;;;;5088861;28;20032;-65
2024/01/14 10:52:41;;;;;;;22.27;11.75;;;;;;;;;;5092923;28;20023;-65
2024/01/14 10:55:28;;;;;;;26.27;11.98;;;;;;;;;;5093346;28;20031;-65
2024/01/14 10:57:55;;;;;;;21.05;10.57;;;;;;;;;;5086020;28;20119;-65
2024/01/14 11:00:20;;;;;;;24.95;12.30;;;;;;;;;;5082766;28;20054;-65
2024/01/14 11:02:45;;;;;;;22.55;11.55;;;;;;;;;;5072209;28;20028;-65
2024/01/14 11:05:12;;;;;;;25.13;12.93;;;;;;;;;;5082877;28;20496;-65
2024/01/14 11:07:37;;;;;;;19.85;10.38;;;;;;;;;;5089522;28;20020;-65
2024/01/14 11:10:03;;;;;;;24.58;12.48;;;;;;;;;;5092543;28;20035;-65
2024/01/14 11:12:43;;;;;;;27.10;11.50;;;;;;;;;;5092143;28;20039;-65
2024/01/14 11:15:15;;;;;;;22.63;11.85;;;;;;;;;;5088853;28;20050;-65
2024/01/14 11:18:06;;;;;;;23.75;11.23;;;;;;;;;;5091570;28;20105;-65
2024/01/14 11:20:32;;;;;;;24.88;13.77;;;;;;;;;;5073931;28;20075;-65
2024/01/14 11:22:57;;;;;;;24.20;14.27;;;;;;;;;;5090987;28;20029;-65
2024/01/14 11:25:30;;;;;;;27.95;12.60;;;;;;;;;;5089846;28;20382;-65
2024/01/14 11:27:55;;;;;;;25.60;12.38;;;;;;;;;;5092293;28;20386;-65
2024/01/14 11:30:40;;;;;;;23.33;12.98;;;;;;;;;;5087107;28;20030;-65
2024/01/14 11:33:24;;;;;;;27.02;13.02;;;;;;;;;;5079214;28;20020;-65
2024/01/14 11:35:49;;;;;;;27.67;12.75;;;;;;;;;;5077004;28;20063;-65
2024/01/14 11:38:44;;;;;;;28.30;13.20;;;;;;;;;;5092626;28;20422;-65
2024/01/14 11:41:28;;;;;;;23.73;13.23;;;;;;;;;;5048908;28;20101;-65
2024/01/14 11:43:55;;;;;;;25.73;12.75;;;;;;;;;;5070115;28;20023;-65
2024/01/14 11:46:39;;;;;;;22.27;12.77;;;;;;;;;;5069806;28;20035;-65
2024/01/14 11:49:15;;;;;;;28.92;13.68;;;;;;;;;;5092324;28;20111;-65
2024/01/14 11:51:50;;;;;;;28.55;12.68;;;;;;;;;;5092415;28;20157;-65
2024/01/14 11:54:17;;;;;;;23.88;12.82;;;;;;;;;;5090601;28;20107;-65
2024/01/14 11:56:42;;;;;;;29.75;13.25;;;;;;;;;;5086374;28;20023;-65
2024/01/14 11:59:08;;;;;;;23.50;12.73;;;;;;;;;;5092262;28;20492;-65
2024/01/14 12:01:33;;;;;;;28.60;13.10;;;;;;;;;;5085996;28;20447;-65
2024/01/14 12:04:10;;;;;;;21.92;12.90;;;;;;;;;;5086741;28;20024;-65
2024/01/14 12:06:42;;;;;;;24.60;11.45;;;;;;;;;;5083354;28;20024;-65
2024/01/14 12:09:08;;;;;;;30.85;14.60;;;;;;;;;;5092367;28;20031;-65
2024/01/14 12:11:34;;;;;;;22.63;12.07;;;;;;;;;;5090306;28;20016;-65
2024/01/14 12:13:59;;;;;;;27.85;12.82;;;;;;;;;;5091474;28;20036;-65
2024/01/14 12:16:24;;;;;;;23.77;11.55;;;;;;;;;;5081514;28;20017;-65
2024/01/14 12:18:49;;;;;;;27.08;12.85;;;;;;;;;;5089468;28;20386;-64
2024/01/14 12:21:16;;;;;;;22.83;12.32;;;;;;;;;;5091571;28;20394;-64
2024/01/14 12:23:41;;;;;;;21.98;10.27;;;;;;;;;;5091947;28;20028;-65
2024/01/14 12:26:06;;;;;;;22.75;10.88;;;;;;;;;;5088562;28;20090;-64
2024/01/14 12:28:32;;;;;;;23.45;10.80;;;;;;;;;;5091749;28;20020;-64
2024/01/14 12:30:58;;;;;;;22.48;10.60;;;;;;;;;;5091042;28;20497;-64
2024/01/14 12:33:23;;;;;;;20.15;11.02;;;;;;;;;;5080319;28;20110;-64
2024/01/14 12:35:48;;;;;;;21.40;10.75;;;;;;;;;;5088574;28;20115;-65
2024/01/14 12:38:14;;;;;;;24.65;10.95;;;;;;;;;;5090765;28;20039;-65
2024/01/14 12:40:39;;;;;;;24.65;10.93;;;;;;;;;;5090941;28;20048;-65
2024/01/14 12:43:08;;;;;;;21.20;10.98;;;;;;;;;;5086361;28;20032;-65
2024/01/14 12:45:33;;;;;;;25.77;11.27;;;;;;;;;;5072720;28;20584;-65
2024/01/14 12:48:02;;;;;;;26.13;11.90;;;;;;;;;;5086044;28;20059;-65
2024/01/14 12:50:37;;;;;;;22.58;11.88;;;;;;;;;;5087254;28;20020;-64
2024/01/14 12:53:11;;;;;;;25.48;11.40;;;;;;;;;;5091330;28;20035;-64
2024/01/14 12:55:37;;;;;;;19.67;10.18;;;;;;;;;;5087900;28;20024;-65
2024/01/14 12:58:03;;;;;;;25.20;11.48;;;;;;;;;;5088097;28;20518;-64
2024/01/14 13:00:29;;;;;;;21.58;10.50;;;;;;;;;;5089051;28;20035;-65
2024/01/14 13:02:54;;;;;;;20.40;10.95;;;;;;;;;;5088480;28;20034;-64
2024/01/14 13:05:19;;;;;;;19.98;10.13;;;;;;;;;;5088455;28;20020;-65
2024/01/14 13:07:45;;;;;;;21.58;10.75;;;;;;;;;;5090894;28;20047;-65
2024/01/14 13:10:10;;;;;;;20.23;10.20;;;;;;;;;;5090936;28;20031;-65
2024/01/14 13:12:35;;;;;;;17.02;9.07;;;;;;;;;;5089651;28;20035;-65
2024/01/14 13:15:00;;;;;;;17.33;9.10;;;;;;;;;;5090856;28;20103;-65
2024/01/14 13:17:25;;;;;;;20.23;9.18;;;;;;;;;;5087474;28;20020;-65
2024/01/14 13:19:51;;;;;;;19.13;8.70;;;;;;;;;;5088512;28;20020;-65
2024/01/14 13:22:16;;;;;;;19.35;8.77;;;;;;;;;;5085938;28;20111;-65
2024/01/14 13:24:42;;;;;;;17.30;8.02;;;;;;;;;;5090746;28;20012;-65
2024/01/14 13:27:08;;;;;;;15.07;8.70;;;;;;;;;;5085357;28;20020;-65
2024/01/14 13:29:33;;;;;;;17.17;9.27;;;;;;;;;;5086993;28;20451;-65
2024/01/14 13:31:58;;;;;;;18.45;8.80;;;;;;;;;;5075946;28;20146;-65
2024/01/14 13:34:24;;;;;;;15.90;9.00;;;;;;;;;;5093218;28;20103;-65
2024/01/14 13:36:49;;;;;;;20.85;9.57;;;;;;;;;;5094472;28;20471;-65
2024/01/14 13:39:14;;;;;;;18.98;8.77;;;;;;;;;;5094589;28;20489;-65
2024/01/14 13:41:40;;;;;;;17.75;8.48;;;;;;;;;;5092721;28;20032;-65
2024/01/14 13:44:05;;;;;;;14.75;7.93;;;;;;;;;;5094167;28;20016;-65
2024/01/14 13:46:31;;;;;;;21.00;8.98;;;;;;;;;;5088747;28;20950;-64
2024/01/14 13:48:56;;;;;;;18.65;8.70;;;;;;;;;;5093624;28;20416;-67
2024/01/14 13:51:21;;;;;;;20.00;8.15;;;;;;;;;;5095143;28;20046;-65
2024/01/14 13:53:47;;;;;;;15.23;7.85;;;;;;;;;;5092650;28;20051;-66
2024/01/14 13:56:12;;;;;;;14.45;8.05;;;;;;;;;;5091170;28;20016;-66
2024/01/14 13:58:37;;;;;;;18.08;8.52;;;;;;;;;;5094168;28;20024;-66
2024/01/14 14:01:02;;;;;;;25.00;11.88;;;;;;;;;;5091380;28;20032;-66
2024/01/14 14:03:28;;;;;;;19.92;9.35;;;;;;;;;;5094381;28;20027;-66
2024/01/14 14:05:53;;;;;;;19.73;8.35;;;;;;;;;;5092961;28;20039;-66
2024/01/14 14:08:18;;;;;;;20.23;9.20;;;;;;;;;;5084659;28;20032;-65
2024/01/14 14:10:44;;;;;;;16.02;7.75;;;;;;;;;;5095062;28;20028;-66